Funchalense 5 — CSKN — position and weather

sailwx.info

Track history (hours):
 
Tides and Currents Weather Stations Pressure Air Temp Water Temp Dewpoint Dewpoint Depression Visibility Wind Speed Wind Dir Waves Ship Positions

Funchalense 5

Last reported at 2018-Jun-23 09:29 UTC. Time now 2018-Jun-23 09:48 UTC.
Position N 38°43' W 009°07'.

Length 127 m; draft 6.5 m.

Type: Ship. MMSI: 255804250.

Date/timePositionNaut miles runAvg speedWind from/ knotsBaromVisibWave heightAir tempDewpointWater temp
2018-Jun-23 09:29N 38°43' W 009°07'0 0.0
2018-Jun-23 08:58N 38°43' W 009°07'0 0.0
2018-Jun-23 08:28N 38°43' W 009°07'0 0.0
2018-Jun-23 07:55N 38°43' W 009°07'0 0.9
2018-Jun-23 07:30N 38°43' W 009°07'710.6
2018-Jun-23 06:54N 38°41' W 009°15'513.9
2018-Jun-23 06:30N 38°39' W 009°21'714.7
2018-Jun-23 06:00N 38°34' W 009°28'815.6
2018-Jun-23 05:30N 38°29' W 009°36'510.6
2018-Jun-23 05:00N 38°32' W 009°41'816.0
2018-Jun-23 04:30N 38°40' W 009°43'816.8
2018-Jun-23 04:00N 38°48' W 009°44'917.1
2018-Jun-23 03:30N 38°57' W 009°45'917.2
2018-Jun-23 03:00N 39°05' W 009°45'917.1
2018-Jun-23 02:30N 39°14' W 009°45'917.1
2018-Jun-23 02:00N 39°22' W 009°45'10716.5
2018-Jun-22 19:30N 41°01' W 008°49'816.5
2018-Jun-22 19:00N 41°08' W 008°44'3 6.9
2018-Jun-22 18:30N 41°11' W 008°42'0 0.0
2018-Jun-22 18:00N 41°11' W 008°42'0 0.0
2018-Jun-22 17:30N 41°11' W 008°42'0 0.1
2018-Jun-22 17:00N 41°11' W 008°42'0 0.0
2018-Jun-22 16:30N 41°11' W 008°42'0 0.0
2018-Jun-22 16:00N 41°11' W 008°42'0 0.0
2018-Jun-22 15:30N 41°11' W 008°42'0 0.0
2018-Jun-22 15:00N 41°11' W 008°42'0 0.0
2018-Jun-22 14:30N 41°11' W 008°42'0 0.0
2018-Jun-22 14:00N 41°11' W 008°42'0 0.0
2018-Jun-22 13:30N 41°11' W 008°42'0 0.0
2018-Jun-22 13:00N 41°11' W 008°42'0 0.0
2018-Jun-22 12:30N 41°11' W 008°42'0 0.0
2018-Jun-22 12:00N 41°11' W 008°42'0 0.0
2018-Jun-22 11:30N 41°11' W 008°42'0 0.0
2018-Jun-22 11:00N 41°11' W 008°42'0 0.0
2018-Jun-22 10:30N 41°11' W 008°42'0 0.0
2018-Jun-22 10:00N 41°11' W 008°42'0 0.0
2018-Jun-22 09:30N 41°11' W 008°42'0 0.0
2018-Jun-22 09:00N 41°11' W 008°42'0 0.0
2018-Jun-22 08:30N 41°11' W 008°42'0 0.0
2018-Jun-22 08:00N 41°11' W 008°42'0 0.0
2018-Jun-22 07:30N 41°11' W 008°42'0 0.0
2018-Jun-22 07:00N 41°11' W 008°42'0 0.0
2018-Jun-22 06:30N 41°11' W 008°42'0 0.0
2018-Jun-22 06:00N 41°11' W 008°42'0 0.0
2018-Jun-22 05:30N 41°11' W 008°42'0 0.0
2018-Jun-22 05:00N 41°11' W 008°42'0 0.0
2018-Jun-22 04:30N 41°11' W 008°42'0 0.0
2018-Jun-22 04:00N 41°11' W 008°42'0 0.0
2018-Jun-22 03:30N 41°11' W 008°42'0 0.0
2018-Jun-22 03:00N 41°11' W 008°42'0 0.0
2018-Jun-22 02:30N 41°11' W 008°42'0 0.0
2018-Jun-22 02:00N 41°11' W 008°42'0 0.0
2018-Jun-22 01:30N 41°11' W 008°42'0 0.0
2018-Jun-22 01:00N 41°11' W 008°42'0 0.0
2018-Jun-22 00:30N 41°11' W 008°42'0 0.0
2018-Jun-22 00:00N 41°11' W 008°42'0 0.0
2018-Jun-21 23:30N 41°11' W 008°42'0 0.0
2018-Jun-21 23:00N 41°11' W 008°42'0 0.0
2018-Jun-21 22:30N 41°11' W 008°42'0 0.0
2018-Jun-21 22:00N 41°11' W 008°42'0 0.0
2018-Jun-21 21:30N 41°11' W 008°42'0 0.5
2018-Jun-21 21:01N 41°11' W 008°42'3 5.7
2018-Jun-21 20:30N 41°08' W 008°44'1 1.5
2018-Jun-21 20:00N 41°08' W 008°44'16116.3
2018-Jun-21 10:10N 38°59' W 010°49'  
2018-Jun-17 01:28N 37°45' W 010°28'714.9
2018-Jun-17 00:58N 37°51' W 010°22'3614.7
2018-Jun-16 22:30N 38°16' W 009°49'815.6
2018-Jun-16 22:00N 38°22' W 009°42'815.7
2018-Jun-16 21:30N 38°27' W 009°35'815.4
2018-Jun-16 21:00N 38°33' W 009°28'816.0
2018-Jun-16 20:31N 38°38' W 009°21'1016.2
2018-Jun-16 19:54N 38°42' W 009°09'2 5.4
2018-Jun-16 19:29N 38°43' W 009°07'0 0.0
2018-Jun-16 18:07N 38°43' W 009°07'0 0.0
2018-Jun-16 17:59N 38°43' W 009°07'0 0.0
2018-Jun-16 17:30N 38°43' W 009°07'0 0.0
2018-Jun-16 17:00N 38°43' W 009°07'0 0.0
2018-Jun-16 16:30N 38°43' W 009°07'0 0.0
2018-Jun-16 15:58N 38°43' W 009°07'0 0.0
2018-Jun-16 15:30N 38°43' W 009°07'0 0.0
2018-Jun-16 15:00N 38°43' W 009°07'0 0.0
2018-Jun-16 14:30N 38°43' W 009°07'0 0.0
2018-Jun-16 14:00N 38°43' W 009°07'0 0.0
2018-Jun-16 13:30N 38°43' W 009°07'0 0.0
2018-Jun-16 13:00N 38°43' W 009°07'0 0.0
2018-Jun-16 12:30N 38°43' W 009°07'0 0.0
2018-Jun-16 12:00N 38°43' W 009°07'0 0.0
2018-Jun-16 11:30N 38°43' W 009°07'0 0.0
2018-Jun-16 11:00N 38°43' W 009°07'0 0.0
2018-Jun-16 10:30N 38°43' W 009°07'0 0.0
2018-Jun-16 10:00N 38°43' W 009°07'0 0.0
2018-Jun-16 09:30N 38°43' W 009°07'0 0.0
2018-Jun-16 09:00N 38°43' W 009°07'0 0.0
2018-Jun-16 08:30N 38°43' W 009°07'0 0.0
2018-Jun-16 08:00N 38°43' W 009°07'0 0.0
2018-Jun-16 07:30N 38°43' W 009°07'0 0.0
2018-Jun-16 07:00N 38°43' W 009°07'0 0.0
2018-Jun-16 06:30N 38°43' W 009°07'0 0.1
2018-Jun-16 05:59N 38°43' W 009°07'0 0.8
2018-Jun-16 05:30N 38°43' W 009°07'611.9
2018-Jun-16 05:00N 38°41' W 009°14'713.2
2018-Jun-16 04:31N 38°38' W 009°21'713.7
2018-Jun-16 04:01N 38°37' W 009°30'714.6
2018-Jun-16 03:30N 38°39' W 009°39'713.2
2018-Jun-16 03:00N 38°45' W 009°43'815.1
2018-Jun-16 02:30N 38°52' W 009°44'714.9
2018-Jun-16 02:00N 38°60' W 009°45'815.2
2018-Jun-16 01:30N 39°07' W 009°45'815.4
2018-Jun-16 01:00N 39°15' W 009°45'714.9
2018-Jun-16 00:30N 39°22' W 009°45'815.7
2018-Jun-16 00:00N 39°30' W 009°44'714.9
2018-Jun-15 23:31N 39°37' W 009°41'714.9
2018-Jun-15 23:01N 39°44' W 009°37'914.5
2018-Jun-15 22:24N 39°52' W 009°32'5 8.0
2018-Jun-15 21:45N 39°56' W 009°29'414.8
2018-Jun-15 21:29N 39°58' W 009°33'715.0
2018-Jun-15 21:00N 40°03' W 009°40'8 8.9
2018-Jun-15 20:07N 40°10' W 009°33'712.8
2018-Jun-15 19:32N 40°09' W 009°23'013.4
2018-Jun-15 19:30N 40°09' W 009°23'4 4.4
2018-Jun-15 18:33N 40°12' W 009°20'114.8
2018-Jun-15 18:30N 40°13' W 009°20'5815.1
2018-Jun-15 14:39N 41°05' W 008°45'215.3
2018-Jun-15 14:30N 41°07' W 008°44'4 8.1
2018-Jun-15 14:00N 41°11' W 008°42'0 0.0
2018-Jun-15 13:30N 41°11' W 008°42'0 0.0
2018-Jun-15 13:00N 41°11' W 008°42'0 0.1
2018-Jun-15 12:29N 41°11' W 008°42'0 0.0
2018-Jun-15 11:59N 41°11' W 008°42'0 0.0
2018-Jun-15 11:29N 41°11' W 008°42'0 0.0
2018-Jun-15 10:59N 41°11' W 008°42'0 0.0
2018-Jun-15 10:28N 41°11' W 008°42'0 0.0
2018-Jun-15 09:58N 41°11' W 008°42'0 0.0
2018-Jun-15 09:28N 41°11' W 008°42'0 0.0
2018-Jun-15 08:58N 41°11' W 008°42'0 0.0
2018-Jun-15 08:28N 41°11' W 008°42'0 0.0
2018-Jun-15 08:00N 41°11' W 008°42'0 0.0
2018-Jun-15 07:30N 41°11' W 008°42'0 0.0
2018-Jun-15 07:00N 41°11' W 008°42'0 0.0
2018-Jun-15 06:24N 41°11' W 008°42'0 0.0
2018-Jun-15 06:00N 41°11' W 008°42'0 0.0
2018-Jun-15 05:29N 41°11' W 008°42'0 0.0
2018-Jun-15 04:59N 41°11' W 008°42'0 0.0
2018-Jun-15 04:29N 41°11' W 008°42'0 0.0
2018-Jun-15 03:59N 41°11' W 008°42'0 0.0
2018-Jun-15 03:28N 41°11' W 008°42'0 0.0
2018-Jun-15 02:58N 41°11' W 008°42'0 0.0
2018-Jun-15 02:30N 41°11' W 008°42'0 0.0
2018-Jun-15 01:58N 41°11' W 008°42'0 0.0
2018-Jun-15 01:28N 41°11' W 008°42'0 0.0
2018-Jun-15 01:00N 41°11' W 008°42'0 0.0
2018-Jun-15 00:30N 41°11' W 008°42'0 0.0
2018-Jun-15 00:00N 41°11' W 008°42'0 0.0
2018-Jun-14 23:30N 41°11' W 008°42'0 0.0
2018-Jun-14 23:00N 41°11' W 008°42'0 0.0
2018-Jun-14 22:29N 41°11' W 008°42'0 0.0
2018-Jun-14 21:59N 41°11' W 008°42'0 0.0
2018-Jun-14 21:29N 41°11' W 008°42'0 0.0
2018-Jun-14 20:59N 41°11' W 008°42'0 0.0
2018-Jun-14 20:28N 41°11' W 008°42'0 0.0
2018-Jun-14 19:58N 41°11' W 008°42'0 0.0
2018-Jun-14 19:28N 41°11' W 008°42'0 0.0
2018-Jun-14 18:58N 41°11' W 008°42'0 0.0
2018-Jun-14 18:28N 41°11' W 008°42'0 0.0
2018-Jun-14 18:00N 41°11' W 008°42'0 0.0
2018-Jun-14 17:30N 41°11' W 008°42'0 0.0
2018-Jun-14 17:00N 41°11' W 008°42'0 0.0
2018-Jun-14 16:30N 41°11' W 008°42'0 0.0
2018-Jun-14 16:00N 41°11' W 008°42'0 0.0
2018-Jun-14 15:29N 41°11' W 008°42'0 0.0
2018-Jun-14 14:59N 41°11' W 008°42'0 0.0
2018-Jun-14 14:29N 41°11' W 008°42'0 0.0
2018-Jun-14 13:59N 41°11' W 008°42'0 0.0
2018-Jun-14 13:28N 41°11' W 008°42'0 0.3
2018-Jun-14 13:01N 41°11' W 008°42'2 4.0
2018-Jun-14 12:31N 41°09' W 008°43'15313.3
2018-Jun-14 00:58N 39°06' W 010°41'914.5
2018-Jun-14 00:20N 38°59' W 010°49'514.2
2018-Jun-14 00:00N 38°55' W 010°53'3214.2
2018-Jun-13 21:44N 38°29' W 011°18'1914.2
2018-Jun-13 20:21N 38°14' W 011°32'614.2
2018-Jun-13 19:55N 38°08' W 011°37'614.3
2018-Jun-13 19:28N 38°03' W 011°41'1014.1
2018-Jun-13 18:45N 37°55' W 011°49'614.0
2018-Jun-13 18:19N 37°50' W 011°54'  
Track history (hours):
 
Tides and Currents Weather Stations Pressure Air Temp Water Temp Dewpoint Dewpoint Depression Visibility Wind Speed Wind Dir Waves Ship Positions

Funchalense 5

Last reported at 2018-Jun-23 09:29 UTC. Time now 2018-Jun-23 09:48 UTC.
Position N 38°43' W 009°07'.

Length 127 m; draft 6.5 m.

Type: Ship. MMSI: 255804250.

Date/timePositionNaut miles runAvg speedWind from/ knotsBaromVisibWave heightAir tempDewpointWater temp
2018-Jun-23 09:29N 38°43' W 009°07'0 0.0
2018-Jun-23 08:58N 38°43' W 009°07'0 0.0
2018-Jun-23 08:28N 38°43' W 009°07'0 0.0
2018-Jun-23 07:55N 38°43' W 009°07'0 0.9
2018-Jun-23 07:30N 38°43' W 009°07'710.6
2018-Jun-23 06:54N 38°41' W 009°15'513.9
2018-Jun-23 06:30N 38°39' W 009°21'714.7
2018-Jun-23 06:00N 38°34' W 009°28'815.6
2018-Jun-23 05:30N 38°29' W 009°36'510.6
2018-Jun-23 05:00N 38°32' W 009°41'816.0
2018-Jun-23 04:30N 38°40' W 009°43'816.8
2018-Jun-23 04:00N 38°48' W 009°44'917.1
2018-Jun-23 03:30N 38°57' W 009°45'917.2
2018-Jun-23 03:00N 39°05' W 009°45'917.1
2018-Jun-23 02:30N 39°14' W 009°45'917.1
2018-Jun-23 02:00N 39°22' W 009°45'10716.5
2018-Jun-22 19:30N 41°01' W 008°49'816.5
2018-Jun-22 19:00N 41°08' W 008°44'3 6.9
2018-Jun-22 18:30N 41°11' W 008°42'0 0.0
2018-Jun-22 18:00N 41°11' W 008°42'0 0.0
2018-Jun-22 17:30N 41°11' W 008°42'0 0.1
2018-Jun-22 17:00N 41°11' W 008°42'0 0.0
2018-Jun-22 16:30N 41°11' W 008°42'0 0.0
2018-Jun-22 16:00N 41°11' W 008°42'0 0.0
2018-Jun-22 15:30N 41°11' W 008°42'0 0.0
2018-Jun-22 15:00N 41°11' W 008°42'0 0.0
2018-Jun-22 14:30N 41°11' W 008°42'0 0.0
2018-Jun-22 14:00N 41°11' W 008°42'0 0.0
2018-Jun-22 13:30N 41°11' W 008°42'0 0.0
2018-Jun-22 13:00N 41°11' W 008°42'0 0.0
2018-Jun-22 12:30N 41°11' W 008°42'0 0.0
2018-Jun-22 12:00N 41°11' W 008°42'0 0.0
2018-Jun-22 11:30N 41°11' W 008°42'0 0.0
2018-Jun-22 11:00N 41°11' W 008°42'0 0.0
2018-Jun-22 10:30N 41°11' W 008°42'0 0.0
2018-Jun-22 10:00N 41°11' W 008°42'0 0.0
2018-Jun-22 09:30N 41°11' W 008°42'0 0.0
2018-Jun-22 09:00N 41°11' W 008°42'0 0.0
2018-Jun-22 08:30N 41°11' W 008°42'0 0.0
2018-Jun-22 08:00N 41°11' W 008°42'0 0.0
2018-Jun-22 07:30N 41°11' W 008°42'0 0.0
2018-Jun-22 07:00N 41°11' W 008°42'0 0.0
2018-Jun-22 06:30N 41°11' W 008°42'0 0.0
2018-Jun-22 06:00N 41°11' W 008°42'0 0.0
2018-Jun-22 05:30N 41°11' W 008°42'0 0.0
2018-Jun-22 05:00N 41°11' W 008°42'0 0.0
2018-Jun-22 04:30N 41°11' W 008°42'0 0.0
2018-Jun-22 04:00N 41°11' W 008°42'0 0.0
2018-Jun-22 03:30N 41°11' W 008°42'0 0.0
2018-Jun-22 03:00N 41°11' W 008°42'0 0.0
2018-Jun-22 02:30N 41°11' W 008°42'0 0.0
2018-Jun-22 02:00N 41°11' W 008°42'0 0.0
2018-Jun-22 01:30N 41°11' W 008°42'0 0.0
2018-Jun-22 01:00N 41°11' W 008°42'0 0.0
2018-Jun-22 00:30N 41°11' W 008°42'0 0.0
2018-Jun-22 00:00N 41°11' W 008°42'0 0.0
2018-Jun-21 23:30N 41°11' W 008°42'0 0.0
2018-Jun-21 23:00N 41°11' W 008°42'0 0.0
2018-Jun-21 22:30N 41°11' W 008°42'0 0.0
2018-Jun-21 22:00N 41°11' W 008°42'0 0.0
2018-Jun-21 21:30N 41°11' W 008°42'0 0.5
2018-Jun-21 21:01N 41°11' W 008°42'3 5.7
2018-Jun-21 20:30N 41°08' W 008°44'1 1.5
2018-Jun-21 20:00N 41°08' W 008°44'16116.3
2018-Jun-21 10:10N 38°59' W 010°49'  
2018-Jun-17 01:28N 37°45' W 010°28'714.9
2018-Jun-17 00:58N 37°51' W 010°22'3614.7
2018-Jun-16 22:30N 38°16' W 009°49'815.6
2018-Jun-16 22:00N 38°22' W 009°42'815.7
2018-Jun-16 21:30N 38°27' W 009°35'815.4
2018-Jun-16 21:00N 38°33' W 009°28'816.0
2018-Jun-16 20:31N 38°38' W 009°21'1016.2
2018-Jun-16 19:54N 38°42' W 009°09'2 5.4
2018-Jun-16 19:29N 38°43' W 009°07'0 0.0
2018-Jun-16 18:07N 38°43' W 009°07'0 0.0
2018-Jun-16 17:59N 38°43' W 009°07'0 0.0
2018-Jun-16 17:30N 38°43' W 009°07'0 0.0
2018-Jun-16 17:00N 38°43' W 009°07'0 0.0
2018-Jun-16 16:30N 38°43' W 009°07'0 0.0
2018-Jun-16 15:58N 38°43' W 009°07'0 0.0
2018-Jun-16 15:30N 38°43' W 009°07'0 0.0
2018-Jun-16 15:00N 38°43' W 009°07'0 0.0
2018-Jun-16 14:30N 38°43' W 009°07'0 0.0
2018-Jun-16 14:00N 38°43' W 009°07'0 0.0
2018-Jun-16 13:30N 38°43' W 009°07'0 0.0
2018-Jun-16 13:00N 38°43' W 009°07'0 0.0
2018-Jun-16 12:30N 38°43' W 009°07'0 0.0
2018-Jun-16 12:00N 38°43' W 009°07'0 0.0
2018-Jun-16 11:30N 38°43' W 009°07'0 0.0
2018-Jun-16 11:00N 38°43' W 009°07'0 0.0
2018-Jun-16 10:30N 38°43' W 009°07'0 0.0
2018-Jun-16 10:00N 38°43' W 009°07'0 0.0
2018-Jun-16 09:30N 38°43' W 009°07'0 0.0
2018-Jun-16 09:00N 38°43' W 009°07'0 0.0
2018-Jun-16 08:30N 38°43' W 009°07'0 0.0
2018-Jun-16 08:00N 38°43' W 009°07'0 0.0
2018-Jun-16 07:30N 38°43' W 009°07'0 0.0
2018-Jun-16 07:00N 38°43' W 009°07'0 0.0
2018-Jun-16 06:30N 38°43' W 009°07'0 0.1
2018-Jun-16 05:59N 38°43' W 009°07'0 0.8
2018-Jun-16 05:30N 38°43' W 009°07'611.9
2018-Jun-16 05:00N 38°41' W 009°14'713.2
2018-Jun-16 04:31N 38°38' W 009°21'713.7
2018-Jun-16 04:01N 38°37' W 009°30'714.6
2018-Jun-16 03:30N 38°39' W 009°39'713.2
2018-Jun-16 03:00N 38°45' W 009°43'815.1
2018-Jun-16 02:30N 38°52' W 009°44'714.9
2018-Jun-16 02:00N 38°60' W 009°45'815.2
2018-Jun-16 01:30N 39°07' W 009°45'815.4
2018-Jun-16 01:00N 39°15' W 009°45'714.9
2018-Jun-16 00:30N 39°22' W 009°45'815.7
2018-Jun-16 00:00N 39°30' W 009°44'714.9
2018-Jun-15 23:31N 39°37' W 009°41'714.9
2018-Jun-15 23:01N 39°44' W 009°37'914.5
2018-Jun-15 22:24N 39°52' W 009°32'5 8.0
2018-Jun-15 21:45N 39°56' W 009°29'414.8
2018-Jun-15 21:29N 39°58' W 009°33'715.0
2018-Jun-15 21:00N 40°03' W 009°40'8 8.9
2018-Jun-15 20:07N 40°10' W 009°33'712.8
2018-Jun-15 19:32N 40°09' W 009°23'013.4
2018-Jun-15 19:30N 40°09' W 009°23'4 4.4
2018-Jun-15 18:33N 40°12' W 009°20'114.8
2018-Jun-15 18:30N 40°13' W 009°20'5815.1
2018-Jun-15 14:39N 41°05' W 008°45'215.3
2018-Jun-15 14:30N 41°07' W 008°44'4 8.1
2018-Jun-15 14:00N 41°11' W 008°42'0 0.0
2018-Jun-15 13:30N 41°11' W 008°42'0 0.0
2018-Jun-15 13:00N 41°11' W 008°42'0 0.1
2018-Jun-15 12:29N 41°11' W 008°42'0 0.0
2018-Jun-15 11:59N 41°11' W 008°42'0 0.0
2018-Jun-15 11:29N 41°11' W 008°42'0 0.0
2018-Jun-15 10:59N 41°11' W 008°42'0 0.0
2018-Jun-15 10:28N 41°11' W 008°42'0 0.0
2018-Jun-15 09:58N 41°11' W 008°42'0 0.0
2018-Jun-15 09:28N 41°11' W 008°42'0 0.0
2018-Jun-15 08:58N 41°11' W 008°42'0 0.0
2018-Jun-15 08:28N 41°11' W 008°42'0 0.0
2018-Jun-15 08:00N 41°11' W 008°42'0 0.0
2018-Jun-15 07:30N 41°11' W 008°42'0 0.0
2018-Jun-15 07:00N 41°11' W 008°42'0 0.0
2018-Jun-15 06:24N 41°11' W 008°42'0 0.0
2018-Jun-15 06:00N 41°11' W 008°42'0 0.0
2018-Jun-15 05:29N 41°11' W 008°42'0 0.0
2018-Jun-15 04:59N 41°11' W 008°42'0 0.0
2018-Jun-15 04:29N 41°11' W 008°42'0 0.0
2018-Jun-15 03:59N 41°11' W 008°42'0 0.0
2018-Jun-15 03:28N 41°11' W 008°42'0 0.0
2018-Jun-15 02:58N 41°11' W 008°42'0 0.0
2018-Jun-15 02:30N 41°11' W 008°42'0 0.0
2018-Jun-15 01:58N 41°11' W 008°42'0 0.0
2018-Jun-15 01:28N 41°11' W 008°42'0 0.0
2018-Jun-15 01:00N 41°11' W 008°42'0 0.0
2018-Jun-15 00:30N 41°11' W 008°42'0 0.0
2018-Jun-15 00:00N 41°11' W 008°42'0 0.0
2018-Jun-14 23:30N 41°11' W 008°42'0 0.0
2018-Jun-14 23:00N 41°11' W 008°42'0 0.0
2018-Jun-14 22:29N 41°11' W 008°42'0 0.0
2018-Jun-14 21:59N 41°11' W 008°42'0 0.0
2018-Jun-14 21:29N 41°11' W 008°42'0 0.0
2018-Jun-14 20:59N 41°11' W 008°42'0 0.0
2018-Jun-14 20:28N 41°11' W 008°42'0 0.0
2018-Jun-14 19:58N 41°11' W 008°42'0 0.0
2018-Jun-14 19:28N 41°11' W 008°42'0 0.0
2018-Jun-14 18:58N 41°11' W 008°42'0 0.0
2018-Jun-14 18:28N 41°11' W 008°42'0 0.0
2018-Jun-14 18:00N 41°11' W 008°42'0 0.0
2018-Jun-14 17:30N 41°11' W 008°42'0 0.0
2018-Jun-14 17:00N 41°11' W 008°42'0 0.0
2018-Jun-14 16:30N 41°11' W 008°42'0 0.0
2018-Jun-14 16:00N 41°11' W 008°42'0 0.0
2018-Jun-14 15:29N 41°11' W 008°42'0 0.0
2018-Jun-14 14:59N 41°11' W 008°42'0 0.0
2018-Jun-14 14:29N 41°11' W 008°42'0 0.0
2018-Jun-14 13:59N 41°11' W 008°42'0 0.0
2018-Jun-14 13:28N 41°11' W 008°42'0 0.3
2018-Jun-14 13:01N 41°11' W 008°42'2 4.0
2018-Jun-14 12:31N 41°09' W 008°43'15313.3
2018-Jun-14 00:58N 39°06' W 010°41'914.5
2018-Jun-14 00:20N 38°59' W 010°49'514.2
2018-Jun-14 00:00N 38°55' W 010°53'3214.2
2018-Jun-13 21:44N 38°29' W 011°18'1914.2
2018-Jun-13 20:21N 38°14' W 011°32'614.2
2018-Jun-13 19:55N 38°08' W 011°37'614.3
2018-Jun-13 19:28N 38°03' W 011°41'1014.1
2018-Jun-13 18:45N 37°55' W 011°49'614.0
2018-Jun-13 18:19N 37°50' W 011°54'  

Dump ship's entire track history